Time,TemperatureF,DewpointF,PressureIn,WindDirection,WindDirectionDegrees,WindSpeedMPH,WindSpeedGustMPH,Humidity,HourlyPrecipIn,Conditions,Clouds,dailyrainin,SoftwareType,DateUTC
2013-02-05 10:19:00,27.7,21.7,29.85,NNW,329,5.0,5.0,78,0.00,,,0.00,Wunderground v.1.15,2013-02-05 16:19:00,
2013-02-05 10:25:00,27.8,21.8,29.85,NNW,347,4.0,12.0,78,0.00,,,0.00,Wunderground v.1.15,2013-02-05 16:25:00,
2013-02-05 10:31:00,27.9,21.9,29.86,NW,315,3.0,8.0,78,0.00,,,0.00,Wunderground v.1.15,2013-02-05 16:31:00,
2013-02-05 10:36:00,27.9,21.9,29.86,North,351,4.0,8.0,78,0.00,,,0.00,Wunderground v.1.15,2013-02-05 16:36:00,
2013-02-05 10:41:00,27.9,21.9,29.86,NW,325,4.0,5.0,78,0.00,,,0.00,Wunderground v.1.15,2013-02-05 16:41:00,
2013-02-05 10:47:00,28.0,21.7,29.87,NNW,331,3.0,6.0,77,0.00,,,0.00,Wunderground v.1.15,2013-02-05 16:47:00,
2013-02-05 10:52:00,28.0,22.0,29.87,NNW,333,3.0,4.0,78,0.00,,,0.00,Wunderground v.1.15,2013-02-05 16:52:00,
2013-02-05 10:57:00,28.1,21.8,29.88,NNW,346,3.0,4.0,77,0.00,,,0.00,Wunderground v.1.15,2013-02-05 16:57:00,
2013-02-05 11:03:00,28.0,22.0,29.88,North,360,3.0,7.0,78,0.00,,,0.00,Wunderground v.1.15,2013-02-05 17:03:00,
2013-02-05 11:08:00,27.8,21.8,29.89,North,360,4.0,9.0,78,0.00,,,0.00,Wunderground v.1.15,2013-02-05 17:08:00,
2013-02-05 11:14:00,27.5,21.5,29.89,NNE,13,5.0,10.0,78,0.00,,,0.00,Wunderground v.1.15,2013-02-05 17:14:00,
2013-02-05 11:20:00,27.2,21.2,29.90,NNW,336,6.0,6.0,78,0.00,,,0.00,Wunderground v.1.15,2013-02-05 17:20:00,
2013-02-05 11:25:00,27.1,21.5,29.90,North,360,6.0,6.0,79,0.00,,,0.00,Wunderground v.1.15,2013-02-05 17:25:00,
2013-02-05 11:31:00,27.1,21.2,29.90,North,360,5.0,8.0,78,0.00,,,0.00,Wunderground v.1.15,2013-02-05 17:31:00,
2013-02-05 11:37:00,27.1,21.2,29.90,North,360,5.0,12.0,78,0.00,,,0.00,Wunderground v.1.15,2013-02-05 17:37:00,
2013-02-05 11:42:00,27.2,21.2,29.91,North,5,5.0,8.0,78,0.00,,,0.00,Wunderground v.1.15,2013-02-05 17:42:00,
2013-02-05 11:47:00,27.3,21.0,29.91,North,350,5.0,8.0,77,0.00,,,0.00,Wunderground v.1.15,2013-02-05 17:47:00,
2013-02-05 15:06:00,25.7,14.1,29.98,NNW,331,2.0,2.0,61,0.00,,,0.06,Wunderground v.1.15,2013-02-05 21:06:00,
2013-02-05 15:12:00,25.6,14.0,29.99,NW,310,3.0,8.0,61,0.00,,,0.06,Wunderground v.1.15,2013-02-05 21:12:00,
2013-02-05 15:17:00,25.5,14.3,29.99,NW,317,2.0,4.0,62,0.00,,,0.06,Wunderground v.1.15,2013-02-05 21:17:00,
2013-02-05 15:23:00,25.3,13.7,29.99,NNW,344,1.0,4.0,61,0.00,,,0.06,Wunderground v.1.15,2013-02-05 21:23:00,
2013-02-05 15:28:00,25.0,13.4,30.00,NNW,344,1.0,4.0,61,0.00,,,0.06,Wunderground v.1.15,2013-02-05 21:28:00,
2013-02-05 15:33:00,24.9,13.7,30.00,WNW,293,1.0,7.0,62,0.00,,,0.06,Wunderground v.1.15,2013-02-05 21:33:00,
2013-02-05 15:39:00,24.8,13.6,30.00,NW,310,1.0,4.0,62,0.00,,,0.06,Wunderground v.1.15,2013-02-05 21:39:00,
2013-02-05 15:45:00,24.5,13.3,30.00,NW,313,1.0,7.0,62,0.00,,,0.06,Wunderground v.1.15,2013-02-05 21:45:00,
2013-02-05 15:51:00,24.2,13.4,30.00,NW,316,1.0,4.0,63,0.00,,,0.06,Wunderground v.1.15,2013-02-05 21:51:00,
2013-02-05 15:56:00,23.9,12.8,30.00,NW,316,0.0,4.0,62,0.00,,,0.06,Wunderground v.1.15,2013-02-05 21:56:00,
2013-02-05 16:02:00,23.6,12.8,30.01,NW,316,0.0,4.0,63,0.00,,,0.06,Wunderground v.1.15,2013-02-05 22:02:00,
2013-02-05 16:07:00,23.3,12.2,30.01,NW,314,1.0,8.0,62,0.00,,,0.06,Wunderground v.1.15,2013-02-05 22:07:00,
2013-02-05 16:13:00,23.0,12.3,30.01,NW,308,2.0,4.0,63,0.00,,,0.06,Wunderground v.1.15,2013-02-05 22:13:00,
2013-02-05 16:18:00,22.8,12.1,30.01,NW,311,2.0,6.0,63,0.00,,,0.06,Wunderground v.1.15,2013-02-05 22:18:00,
2013-02-05 16:23:00,22.6,11.9,30.01,NW,306,2.0,4.0,63,0.00,,,0.06,Wunderground v.1.15,2013-02-05 22:23:00,
2013-02-05 16:28:00,22.5,11.8,30.02,NW,313,1.0,4.0,63,0.00,,,0.06,Wunderground v.1.15,2013-02-05 22:28:00,
2013-02-05 16:34:00,22.2,11.5,30.02,NW,311,1.0,5.0,63,0.00,,,0.06,Wunderground v.1.15,2013-02-05 22:34:00,
2013-02-05 16:57:00,21.5,10.8,30.02,NW,320,1.0,4.0,63,0.00,,,0.06,Wunderground v.1.15,2013-02-05 22:57:00,